createdAt,value
2018-04-08T00:01:15.163Z,8.90
2018-04-08T00:03:43.403Z,8.90
2018-04-08T00:06:10.930Z,8.80
2018-04-08T00:08:38.411Z,8.80
2018-04-08T00:11:05.933Z,8.80
2018-04-08T00:13:34.170Z,8.60
2018-04-08T00:16:01.649Z,8.60
2018-04-08T00:18:29.920Z,8.60
2018-04-08T00:20:58.174Z,8.50
2018-04-08T00:23:25.878Z,8.50
2018-04-08T00:25:54.146Z,8.40
2018-04-08T00:28:22.415Z,8.30
2018-04-08T00:30:49.895Z,8.30
2018-04-08T00:33:17.555Z,8.30
2018-04-08T00:35:45.806Z,8.20
2018-04-08T00:38:13.310Z,8.10
2018-04-08T00:40:40.999Z,8.20
2018-04-08T00:43:08.664Z,8.10
2018-04-08T00:45:36.255Z,8.10
2018-04-08T00:48:03.750Z,8.10
2018-04-08T00:50:31.226Z,8.00
2018-04-08T00:52:59.487Z,8.00
2018-04-08T00:55:26.970Z,7.90
2018-04-08T00:57:54.547Z,8.00
2018-04-08T01:00:22.025Z,7.90
2018-04-08T01:02:49.518Z,7.90
2018-04-08T01:05:18.107Z,7.80
2018-04-08T01:07:45.599Z,7.80
2018-04-08T01:10:13.080Z,7.80
2018-04-08T01:12:40.577Z,7.80
2018-04-08T01:15:08.815Z,7.70
2018-04-08T01:17:36.330Z,7.70
2018-04-08T01:20:03.816Z,7.70
2018-04-08T01:22:31.347Z,7.70
2018-04-08T01:24:59.023Z,7.70
2018-04-08T01:27:26.671Z,7.70
2018-04-08T01:29:54.151Z,7.60
2018-04-08T01:32:21.648Z,7.60
2018-04-08T01:34:49.135Z,7.60
2018-04-08T01:37:17.394Z,7.50
2018-04-08T01:39:45.647Z,7.40
2018-04-08T01:42:13.128Z,7.40
2018-04-08T01:44:40.634Z,7.40
2018-04-08T01:47:08.112Z,7.40
2018-04-08T01:49:35.620Z,7.40
2018-04-08T01:52:03.875Z,7.40
2018-04-08T01:54:31.455Z,7.30
2018-04-08T01:56:59.776Z,7.30
2018-04-08T01:59:28.037Z,7.20
2018-04-08T02:01:55.519Z,7.30
2018-04-08T02:04:23.011Z,7.30
2018-04-08T02:06:50.668Z,7.20
2018-04-08T02:09:18.167Z,7.10
2018-04-08T02:11:45.647Z,7.10
2018-04-08T02:14:13.138Z,7.10
2018-04-08T02:16:40.619Z,7.00
2018-04-08T02:19:09.108Z,7.00
2018-04-08T02:21:37.355Z,6.90
2018-04-08T02:24:04.935Z,6.80
2018-04-08T02:26:32.524Z,6.90
2018-04-08T02:29:00.147Z,6.90
2018-04-08T02:31:27.643Z,6.90
2018-04-08T02:33:55.978Z,6.80
2018-04-08T02:36:23.466Z,6.70
2018-04-08T02:38:51.732Z,6.80
2018-04-08T02:41:19.404Z,6.70
2018-04-08T02:43:47.655Z,6.80
2018-04-08T02:46:15.195Z,6.70
2018-04-08T02:48:42.956Z,6.80
2018-04-08T02:51:10.481Z,6.80
2018-04-08T02:53:39.618Z,6.70
2018-04-08T02:56:07.911Z,6.60
2018-04-08T02:58:35.917Z,6.70
2018-04-08T03:01:04.183Z,6.60
2018-04-08T03:03:31.664Z,6.50
2018-04-08T03:05:59.923Z,6.50
2018-04-08T03:08:27.408Z,6.40
2018-04-08T03:10:54.898Z,6.50
2018-04-08T03:13:22.378Z,6.50
2018-04-08T03:15:49.877Z,6.50
2018-04-08T03:18:18.168Z,6.40
2018-04-08T03:20:45.658Z,6.30
2018-04-08T03:23:13.131Z,6.40
2018-04-08T03:25:40.820Z,6.30
2018-04-08T03:28:08.294Z,6.30
2018-04-08T03:30:36.652Z,6.30
2018-04-08T03:33:04.130Z,6.20
2018-04-08T03:35:32.541Z,6.20
2018-04-08T03:38:00.015Z,6.10
2018-04-08T03:40:27.514Z,6.20
2018-04-08T03:42:55.000Z,6.10
2018-04-08T03:45:25.371Z,6.10
2018-04-08T03:47:52.850Z,6.10
2018-04-08T03:50:20.398Z,6.10
2018-04-08T03:52:47.892Z,6.10
2018-04-08T03:55:16.151Z,6.10
2018-04-08T03:57:43.727Z,6.00
2018-04-08T04:00:12.226Z,6.00
2018-04-08T04:02:39.710Z,6.00
2018-04-08T04:05:07.391Z,6.00
2018-04-08T04:07:34.959Z,6.00
2018-04-08T04:10:02.440Z,6.00
2018-04-08T04:12:29.948Z,6.00
2018-04-08T04:14:57.667Z,6.00
2018-04-08T04:17:25.926Z,6.00
2018-04-08T04:20:05.142Z,5.90
2018-04-08T04:22:44.531Z,5.90
2018-04-08T04:25:36.245Z,5.90
2018-04-08T04:28:04.518Z,5.80
2018-04-08T04:30:32.007Z,5.80
2018-04-08T04:32:59.712Z,5.80
2018-04-08T04:35:27.196Z,5.70
2018-04-08T04:37:54.687Z,5.70
2018-04-08T04:40:22.176Z,5.60
2018-04-08T04:42:49.672Z,5.60
2018-04-08T04:45:17.163Z,5.60
2018-04-08T04:47:44.734Z,5.60
2018-04-08T04:50:12.303Z,5.60
2018-04-08T04:52:39.807Z,5.60
2018-04-08T04:55:07.669Z,5.60
2018-04-08T04:57:35.326Z,5.60
2018-04-08T05:00:02.810Z,5.60
2018-04-08T05:02:41.899Z,5.50
2018-04-08T05:05:09.374Z,5.50
2018-04-08T05:07:36.871Z,5.50
2018-04-08T05:10:06.062Z,5.40
2018-04-08T05:12:34.339Z,5.40
2018-04-08T05:15:01.892Z,5.30
2018-04-08T05:17:30.491Z,5.30
2018-04-08T05:19:58.738Z,5.40
2018-04-08T05:22:26.238Z,5.30
2018-04-08T05:24:55.578Z,5.50
2018-04-08T05:27:23.066Z,5.40
2018-04-08T05:29:50.734Z,5.50
2018-04-08T05:32:18.349Z,5.60
2018-04-08T05:34:46.866Z,5.60
2018-04-08T05:37:14.412Z,5.60
2018-04-08T05:39:42.190Z,5.70
2018-04-08T05:42:09.675Z,5.70
2018-04-08T05:44:37.610Z,5.70
2018-04-08T05:47:05.142Z,5.80
2018-04-08T05:49:32.640Z,5.90
2018-04-08T05:52:00.120Z,5.90
2018-04-08T05:54:27.806Z,6.00
2018-04-08T05:56:57.039Z,6.20
2018-04-08T05:59:25.367Z,6.20
2018-04-08T06:01:53.816Z,6.30
2018-04-08T06:04:22.207Z,6.20
2018-04-08T06:06:50.755Z,6.40
2018-04-08T06:09:18.267Z,6.50
2018-04-08T06:11:45.759Z,6.60
2018-04-08T06:14:13.251Z,6.70
2018-04-08T06:16:40.727Z,6.80
2018-04-08T06:19:08.215Z,6.90
2018-04-08T06:21:36.462Z,7.30
2018-04-08T06:24:03.962Z,7.20
2018-04-08T06:26:32.415Z,7.40
2018-04-08T06:29:00.882Z,7.70
2018-04-08T06:31:28.363Z,7.60
2018-04-08T06:33:55.869Z,7.80
2018-04-08T06:36:23.356Z,8.00
2018-04-08T06:38:52.026Z,8.20
2018-04-08T06:41:19.516Z,8.30
2018-04-08T06:43:47.180Z,8.50
2018-04-08T06:46:14.658Z,8.70
2018-04-08T06:48:43.410Z,8.90
2018-04-08T06:51:10.914Z,8.90
2018-04-08T06:53:39.163Z,9.20
2018-04-08T06:56:06.853Z,9.10
2018-04-08T06:58:35.103Z,9.40
2018-04-08T07:01:02.781Z,9.30
2018-04-08T07:03:30.263Z,9.50
2018-04-08T07:06:00.939Z,9.60
2018-04-08T07:08:28.423Z,9.70
2018-04-08T07:10:55.926Z,9.90
2018-04-08T07:13:23.411Z,9.90
2018-04-08T07:15:53.671Z,10.10
2018-04-08T07:18:21.402Z,10.30
2018-04-08T07:20:49.071Z,10.40
2018-04-08T07:23:16.758Z,10.60
2018-04-08T07:25:44.260Z,10.70
2018-04-08T07:28:12.595Z,10.90
2018-04-08T07:30:40.093Z,11.00
2018-04-08T07:33:14.529Z,11.10
2018-04-08T07:35:43.382Z,11.30
2018-04-08T07:38:12.479Z,11.60
2018-04-08T07:40:41.679Z,11.80
2018-04-08T07:43:10.715Z,11.90
2018-04-08T07:45:38.279Z,11.90
2018-04-08T07:48:06.162Z,12.10
2018-04-08T07:50:33.809Z,12.20
2018-04-08T07:53:01.298Z,12.40
2018-04-08T07:55:31.623Z,12.50
2018-04-08T07:57:59.120Z,12.70
2018-04-08T08:00:27.390Z,13.00
2018-04-08T08:02:55.645Z,13.20
2018-04-08T08:05:23.175Z,13.10
2018-04-08T08:07:50.639Z,13.30
2018-04-08T08:10:18.141Z,13.40
2018-04-08T08:12:46.399Z,13.70
2018-04-08T08:15:14.092Z,13.70
2018-04-08T08:17:42.534Z,14.10
2018-04-08T08:20:10.043Z,14.00
2018-04-08T08:22:38.294Z,14.40
2018-04-08T08:25:10.103Z,14.40
2018-04-08T08:27:37.617Z,14.40
2018-04-08T08:30:05.317Z,14.50
2018-04-08T08:32:32.819Z,14.60
2018-04-08T08:35:00.505Z,14.80
2018-04-08T08:37:28.978Z,15.10
2018-04-08T08:39:56.455Z,15.00
2018-04-08T08:42:24.727Z,15.40
2018-04-08T08:44:52.998Z,15.50
2018-04-08T08:47:21.243Z,15.50
2018-04-08T08:49:48.768Z,15.60
2018-04-08T08:52:16.279Z,15.70
2018-04-08T08:54:44.833Z,15.70
2018-04-08T08:57:12.336Z,15.70
2018-04-08T08:59:39.883Z,15.70
2018-04-08T09:02:07.382Z,15.70
2018-04-08T09:04:34.950Z,15.70
2018-04-08T09:07:03.289Z,15.80
2018-04-08T09:09:30.766Z,16.00
2018-04-08T09:11:59.042Z,16.40
2018-04-08T09:14:27.327Z,16.30
2018-04-08T09:16:55.595Z,16.40
2018-04-08T09:19:29.451Z,16.40
2018-04-08T09:22:02.668Z,16.30
2018-04-08T09:24:47.940Z,16.40
2018-04-08T09:27:15.440Z,16.60
2018-04-08T09:29:43.723Z,17.00
2018-04-08T09:32:12.719Z,17.10
2018-04-08T09:34:40.983Z,17.30
2018-04-08T09:37:09.263Z,17.50
2018-04-08T09:39:38.387Z,17.70
2018-04-08T09:42:06.083Z,17.60
2018-04-08T09:44:34.495Z,17.80
2018-04-08T09:47:02.758Z,18.00
2018-04-08T09:49:30.359Z,17.90
2018-04-08T09:51:59.039Z,18.10
2018-04-08T09:54:26.528Z,18.30
2018-04-08T09:56:54.863Z,18.40
2018-04-08T09:59:23.122Z,18.30
2018-04-08T10:01:51.595Z,18.30
2018-04-08T10:04:19.099Z,18.40
2018-04-08T10:06:46.583Z,18.60
2018-04-08T10:09:14.105Z,18.70
2018-04-08T10:11:42.375Z,18.70
2018-04-08T10:14:10.646Z,18.70
2018-04-08T10:16:38.127Z,18.60
2018-04-08T10:19:06.411Z,18.70
2018-04-08T10:21:37.994Z,18.80
2018-04-08T10:24:05.507Z,18.80
2018-04-08T10:26:33.787Z,19.10
2018-04-08T10:29:02.086Z,19.10
2018-04-08T10:31:29.691Z,19.00
2018-04-08T10:33:57.191Z,19.10
2018-04-08T10:36:25.453Z,19.10
2018-04-08T10:38:54.043Z,19.00
2018-04-08T10:41:21.723Z,19.10
2018-04-08T10:43:51.055Z,19.20
2018-04-08T10:46:18.628Z,19.20
2018-04-08T10:48:48.838Z,19.20
2018-04-08T10:51:16.323Z,19.30
2018-04-08T10:53:43.870Z,19.30
2018-04-08T10:56:11.458Z,19.40
2018-04-08T10:58:39.159Z,19.40
2018-04-08T11:01:06.643Z,19.50
2018-04-08T11:03:34.143Z,19.50
2018-04-08T11:06:01.820Z,19.60
2018-04-08T11:08:30.088Z,19.70
2018-04-08T11:10:58.414Z,19.60
2018-04-08T11:13:26.103Z,19.70
2018-04-08T11:15:53.610Z,19.70
2018-04-08T11:18:22.899Z,19.90
2018-04-08T11:20:50.383Z,19.80
2018-04-08T11:23:18.651Z,20.00
2018-04-08T11:25:46.898Z,20.00
2018-04-08T11:28:14.400Z,20.00
2018-04-08T11:30:42.099Z,20.10
2018-04-08T11:33:09.999Z,20.20
2018-04-08T11:35:38.462Z,20.30
2018-04-08T11:38:05.947Z,20.20
2018-04-08T11:40:34.224Z,20.40
2018-04-08T11:43:02.466Z,20.50
2018-04-08T11:45:30.390Z,20.50
2018-04-08T11:47:57.874Z,20.70
2018-04-08T11:50:25.382Z,20.70
2018-04-08T11:52:52.867Z,20.80
2018-04-08T11:55:21.141Z,21.00
2018-04-08T11:57:49.485Z,20.90
2018-04-08T12:00:17.080Z,21.00
2018-04-08T12:02:45.331Z,21.00
2018-04-08T12:05:12.862Z,21.00
2018-04-08T12:07:43.406Z,21.00
2018-04-08T12:10:10.910Z,21.00
2018-04-08T12:12:39.164Z,21.10
2018-04-08T12:15:07.471Z,21.20
2018-04-08T12:17:35.047Z,21.10
2018-04-08T12:20:02.546Z,21.20
2018-04-08T12:25:24.395Z,21.40
2018-04-08T12:27:51.882Z,21.30
2018-04-08T12:30:20.148Z,21.50
2018-04-08T12:32:47.642Z,21.40
2018-04-08T12:35:18.087Z,21.50
2018-04-08T12:37:45.570Z,21.50
2018-04-08T12:40:13.075Z,21.50
2018-04-08T12:42:41.323Z,21.70
2018-04-08T12:45:09.018Z,21.60
2018-04-08T12:47:37.331Z,21.70
2018-04-08T12:50:04.830Z,21.70
2018-04-08T12:55:00.988Z,21.70
2018-04-08T12:57:30.287Z,21.80
2018-04-08T12:59:58.575Z,21.70
2018-04-08T13:02:26.822Z,21.80
2018-04-08T13:04:54.315Z,21.70
2018-04-08T13:07:22.588Z,21.80
2018-04-08T13:09:50.906Z,21.80
2018-04-08T13:12:18.406Z,21.80
2018-04-08T13:14:46.663Z,21.90
2018-04-08T13:17:14.351Z,21.90
2018-04-08T13:19:41.840Z,22.00
2018-04-08T13:22:09.540Z,22.00
2018-04-08T13:24:37.244Z,22.00
2018-04-08T13:27:05.520Z,22.00
2018-04-08T13:29:33.783Z,22.00
2018-04-08T13:32:01.484Z,22.00
2018-04-08T13:34:30.130Z,22.00
2018-04-08T13:36:57.640Z,22.00
2018-04-08T13:39:25.140Z,22.00
2018-04-08T13:41:52.646Z,22.00
2018-04-08T13:44:20.138Z,22.10
2018-04-08T13:46:47.646Z,22.10
2018-04-08T13:49:15.945Z,22.20
2018-04-08T13:51:43.731Z,22.10
2018-04-08T13:54:11.226Z,22.10
2018-04-08T13:56:38.735Z,22.20
2018-04-08T13:59:06.222Z,22.10
2018-04-08T14:01:33.730Z,22.20
2018-04-08T14:04:01.995Z,22.10
2018-04-08T14:06:30.366Z,22.10
2018-04-08T14:08:58.951Z,22.10
2018-04-08T14:11:27.539Z,22.10
2018-04-08T14:13:55.023Z,22.20
2018-04-08T14:16:25.423Z,22.10
2018-04-08T14:18:53.195Z,22.20
2018-04-08T14:21:23.786Z,22.20
2018-04-08T14:23:51.295Z,22.20
2018-04-08T14:26:18.786Z,22.20
2018-04-08T14:28:46.286Z,22.20
2018-04-08T14:31:14.555Z,22.20
2018-04-08T14:33:42.822Z,22.20
2018-04-08T14:36:10.323Z,22.20
2018-04-08T14:38:37.839Z,22.20
2018-04-08T14:41:06.838Z,22.20
2018-04-08T14:43:35.118Z,22.30
2018-04-08T14:46:03.397Z,22.30
2018-04-08T14:48:31.662Z,22.30
2018-04-08T14:50:59.149Z,22.30
2018-04-08T14:53:26.655Z,22.40
2018-04-08T14:55:54.146Z,22.40
2018-04-08T14:58:21.656Z,22.40
2018-04-08T15:00:49.140Z,22.30
2018-04-08T15:03:16.648Z,22.30
2018-04-08T15:05:44.141Z,22.40
2018-04-08T15:08:11.651Z,22.30
2018-04-08T15:10:39.958Z,22.30
2018-04-08T15:13:08.188Z,22.30
2018-04-08T15:15:35.680Z,22.30
2018-04-08T15:18:03.951Z,22.40
2018-04-08T15:20:40.477Z,22.40
2018-04-08T15:23:07.984Z,22.30
2018-04-08T15:25:35.488Z,22.40
2018-04-08T15:28:02.990Z,22.30
2018-04-08T15:30:31.247Z,22.30
2018-04-08T15:32:58.747Z,22.30
2018-04-08T15:35:26.234Z,22.30
2018-04-08T15:37:53.740Z,22.30
2018-04-08T15:40:22.022Z,22.30
2018-04-08T15:42:50.277Z,22.30
2018-04-08T15:45:17.781Z,22.30
2018-04-08T15:47:45.280Z,22.30
2018-04-08T15:50:12.789Z,22.30
2018-04-08T15:52:41.059Z,22.30
2018-04-08T15:55:09.331Z,22.30
2018-04-08T15:57:37.708Z,22.30
2018-04-08T16:00:05.258Z,22.20
2018-04-08T16:02:32.747Z,22.20
2018-04-08T16:05:01.022Z,22.20
2018-04-08T16:07:28.517Z,22.10
2018-04-08T16:09:56.027Z,22.10
2018-04-08T16:12:23.537Z,22.00
2018-04-08T16:14:51.042Z,22.00
2018-04-08T16:17:19.303Z,21.90
2018-04-08T16:19:46.812Z,21.80
2018-04-08T16:22:14.312Z,21.80
2018-04-08T16:24:41.832Z,21.80
2018-04-08T16:27:09.318Z,21.80
2018-04-08T16:29:36.822Z,21.80
2018-04-08T16:32:05.102Z,21.60
2018-04-08T16:34:33.370Z,21.60
2018-04-08T16:37:00.858Z,21.50
2018-04-08T16:39:28.368Z,21.50
2018-04-08T16:41:55.862Z,21.40
2018-04-08T16:44:24.139Z,21.30
2018-04-08T16:46:52.407Z,21.20
2018-04-08T16:49:20.684Z,21.20
2018-04-08T16:51:48.972Z,21.10
2018-04-08T16:54:17.254Z,21.10
2018-04-08T16:56:45.514Z,21.00
2018-04-08T16:59:13.798Z,21.00
2018-04-08T17:01:42.090Z,20.90
2018-04-08T17:04:09.582Z,20.90
2018-04-08T17:06:37.087Z,20.80
2018-04-08T17:09:04.570Z,20.80
2018-04-08T17:11:32.834Z,20.60
2018-04-08T17:14:01.096Z,20.60
2018-04-08T17:16:28.596Z,20.50
2018-04-08T17:18:56.079Z,20.40
2018-04-08T17:21:23.588Z,20.40
2018-04-08T17:23:51.843Z,20.30
2018-04-08T17:26:19.339Z,20.20
2018-04-08T17:28:47.586Z,20.20
2018-04-08T17:31:15.083Z,20.10
2018-04-08T17:33:42.579Z,20.10
2018-04-08T17:36:10.085Z,20.00
2018-04-08T17:38:38.327Z,19.90
2018-04-08T17:41:05.832Z,19.80
2018-04-08T17:43:34.129Z,19.70
2018-04-08T17:46:01.637Z,19.60
2018-04-08T17:48:29.122Z,19.60
2018-04-08T17:50:57.389Z,19.50
2018-04-08T17:53:25.643Z,19.40
2018-04-08T17:55:53.178Z,19.40
2018-04-08T17:58:20.662Z,19.30
2018-04-08T18:00:48.263Z,19.30
2018-04-08T18:03:16.508Z,19.10
2018-04-08T18:05:43.999Z,19.00
2018-04-08T18:08:11.487Z,19.00
2018-04-08T18:10:38.987Z,18.90
2018-04-08T18:13:06.546Z,18.80
2018-04-08T18:15:34.051Z,18.70
2018-04-08T18:18:01.535Z,18.60
2018-04-08T18:20:29.039Z,18.60
2018-04-08T18:22:57.286Z,18.40
2018-04-08T18:25:24.775Z,18.30
2018-04-08T18:27:53.035Z,18.30
2018-04-08T18:30:20.519Z,18.20
2018-04-08T18:32:48.787Z,18.10
2018-04-08T18:35:17.041Z,18.00
2018-04-08T18:37:44.539Z,17.90
2018-04-08T18:40:12.791Z,17.80
2018-04-08T18:42:40.291Z,17.80
2018-04-08T18:45:07.780Z,17.70
2018-04-08T18:47:35.279Z,17.70
2018-04-08T18:50:03.537Z,17.50
2018-04-08T18:52:31.038Z,17.40
2018-04-08T18:54:59.279Z,17.30
2018-04-08T18:57:26.775Z,17.30
2018-04-08T18:59:54.260Z,17.20
2018-04-08T19:02:28.682Z,17.10
2018-04-08T19:04:56.162Z,17.00
2018-04-08T19:07:23.667Z,16.90
2018-04-08T19:09:51.911Z,16.80
2018-04-08T19:12:19.419Z,16.70
2018-04-08T19:14:52.624Z,16.70
2018-04-08T19:17:25.760Z,16.60
2018-04-08T19:19:54.024Z,16.50
2018-04-08T19:22:21.522Z,16.40
2018-04-08T19:24:49.774Z,16.30
2018-04-08T19:27:23.079Z,16.20
2018-04-08T19:29:50.579Z,16.20
2018-04-08T19:32:18.078Z,16.10
2018-04-08T19:34:45.562Z,16.00
2018-04-08T19:37:13.831Z,15.90
2018-04-08T19:39:41.312Z,15.80
2018-04-08T19:42:09.570Z,15.70
2018-04-08T19:44:37.819Z,15.60
2018-04-08T19:47:05.329Z,15.60
2018-04-08T19:49:32.820Z,15.60
2018-04-08T19:52:00.322Z,15.50
2018-04-08T19:54:28.580Z,15.30
2018-04-08T19:56:56.073Z,15.30
2018-04-08T19:59:24.340Z,15.20
2018-04-08T20:01:51.819Z,15.10
2018-04-08T20:04:20.161Z,15.00
2018-04-08T20:06:47.586Z,15.00
2018-04-08T20:09:15.084Z,15.00
2018-04-08T20:11:42.562Z,14.90
2018-04-08T20:14:10.831Z,14.90
2018-04-08T20:16:39.078Z,14.80
2018-04-08T20:19:06.575Z,14.80
2018-04-08T20:21:54.820Z,14.80
2018-04-08T20:24:23.091Z,14.80
2018-04-08T20:26:52.083Z,14.70
2018-04-08T20:29:21.096Z,14.60
2018-04-08T20:31:48.590Z,14.60
2018-04-08T20:34:16.088Z,14.60
2018-04-08T20:36:43.571Z,14.60
2018-04-08T20:39:11.838Z,14.50
2018-04-08T20:41:40.095Z,14.50
2018-04-08T20:44:07.599Z,14.40
2018-04-08T20:46:35.080Z,14.50
2018-04-08T20:49:02.616Z,14.40
2018-04-08T20:51:30.863Z,14.40
2018-04-08T20:53:58.365Z,14.30
2018-04-08T20:56:25.861Z,14.30
2018-04-08T20:58:53.358Z,14.30
2018-04-08T21:01:21.609Z,14.20
2018-04-08T21:03:49.119Z,14.20
2018-04-08T21:06:16.612Z,14.20
2018-04-08T21:08:44.107Z,14.10
2018-04-08T21:11:12.354Z,14.10
2018-04-08T21:13:39.867Z,14.00
2018-04-08T21:16:07.347Z,14.00
2018-04-08T21:18:34.834Z,14.00
2018-04-08T21:21:02.334Z,13.90
2018-04-08T21:23:29.818Z,13.90
2018-04-08T21:25:57.315Z,13.90
2018-04-08T21:28:24.794Z,13.80
2018-04-08T21:30:53.071Z,13.70
2018-04-08T21:33:21.334Z,13.60
2018-04-08T21:35:48.855Z,13.60
2018-04-08T21:38:17.547Z,13.60
2018-04-08T21:40:47.459Z,13.50
2018-04-08T21:43:15.015Z,13.40
2018-04-08T21:45:42.521Z,13.40
2018-04-08T21:48:11.191Z,13.30
2018-04-08T21:50:41.655Z,13.30
2018-04-08T21:53:09.806Z,13.20
2018-04-08T21:55:37.306Z,13.20
2018-04-08T21:58:04.791Z,13.10
2018-04-08T22:00:32.302Z,13.10
2018-04-08T22:03:00.559Z,13.00
2018-04-08T22:05:28.060Z,12.90
2018-04-08T22:07:55.550Z,12.90
2018-04-08T22:10:23.051Z,12.90
2018-04-08T22:12:51.306Z,12.80
2018-04-08T22:15:18.811Z,12.80
2018-04-08T22:17:47.067Z,12.70
2018-04-08T22:20:15.338Z,12.60
2018-04-08T22:22:42.823Z,12.60
2018-04-08T22:25:10.327Z,12.60
2018-04-08T22:27:37.820Z,12.60
2018-04-08T22:30:06.826Z,12.50
2018-04-08T22:32:48.805Z,12.50
2018-04-08T22:35:16.304Z,12.50
2018-04-08T22:37:43.791Z,12.50
2018-04-08T22:40:11.302Z,12.40
2018-04-08T22:42:39.560Z,12.30
2018-04-08T22:45:07.042Z,12.30
2018-04-08T22:47:35.307Z,12.20
2018-04-08T22:50:03.554Z,12.20
2018-04-08T22:52:31.055Z,12.20
2018-04-08T22:54:59.302Z,12.20
2018-04-08T22:57:26.801Z,12.10
2018-04-08T22:59:55.048Z,12.10
2018-04-08T23:02:22.547Z,12.00
2018-04-08T23:04:50.039Z,12.00
2018-04-08T23:07:17.540Z,12.00
2018-04-08T23:09:45.791Z,11.90
2018-04-08T23:12:13.287Z,11.90
2018-04-08T23:14:40.767Z,11.90
2018-04-08T23:17:08.271Z,11.90
2018-04-08T23:19:35.763Z,11.80
2018-04-08T23:22:04.034Z,11.70
2018-04-08T23:24:32.283Z,11.60
2018-04-08T23:26:59.783Z,11.60
2018-04-08T23:29:27.263Z,11.60
2018-04-08T23:31:54.764Z,11.50
2018-04-08T23:34:22.246Z,11.50
2018-04-08T23:36:50.517Z,11.40
2018-04-08T23:39:18.775Z,11.40
2018-04-08T23:41:46.272Z,11.30
2018-04-08T23:44:14.527Z,11.30
2018-04-08T23:46:42.798Z,11.20
2018-04-08T23:49:10.283Z,11.10
2018-04-08T23:51:38.539Z,11.10
2018-04-08T23:54:06.042Z,11.10
2018-04-08T23:56:33.523Z,11.10
2018-04-08T23:59:01.031Z,11.00
